createdAt,value
2016-10-01T00:00:05.883Z,0
2016-10-01T00:01:06.398Z,0
2016-10-01T00:02:06.279Z,0
2016-10-01T00:03:06.357Z,0
2016-10-01T00:04:06.287Z,0
2016-10-01T00:05:05.699Z,0
2016-10-01T00:06:06.943Z,0
2016-10-01T00:07:05.599Z,0
2016-10-01T00:08:06.517Z,0
2016-10-01T00:09:06.753Z,0
2016-10-01T00:10:06.010Z,0
2016-10-01T00:11:07.170Z,0
2016-10-01T00:12:05.943Z,0
2016-10-01T00:13:07.629Z,0
2016-10-01T00:14:05.601Z,0
2016-10-01T00:15:07.563Z,0
2016-10-01T00:16:06.507Z,0
2016-10-01T00:17:06.985Z,0
2016-10-01T00:18:05.897Z,0
2016-10-01T00:19:06.919Z,0
2016-10-01T00:20:07.947Z,0
2016-10-01T00:21:07.635Z,0
2016-10-01T00:22:06.512Z,0
2016-10-01T00:23:06.682Z,0
2016-10-01T00:24:06.081Z,0
2016-10-01T00:25:06.785Z,0
2016-10-01T00:26:06.947Z,0
2016-10-01T00:27:07.093Z,0
2016-10-01T00:28:06.682Z,0
2016-10-01T00:29:07.219Z,0
2016-10-01T00:30:07.286Z,0
2016-10-01T00:31:06.290Z,0
2016-10-01T00:32:07.961Z,0
2016-10-01T00:33:06.827Z,0
2016-10-01T00:34:07.744Z,0
2016-10-01T00:35:07.127Z,0
2016-10-01T00:36:07.125Z,0
2016-10-01T00:37:07.024Z,0
2016-10-01T00:38:07.926Z,0
2016-10-01T00:39:07.449Z,0
2016-10-01T00:40:06.671Z,0
2016-10-01T00:41:07.732Z,0
2016-10-01T00:42:07.430Z,0
2016-10-01T00:43:05.858Z,0
2016-10-01T00:44:06.790Z,0
2016-10-01T00:45:09.279Z,0
2016-10-01T00:46:07.265Z,0
2016-10-01T00:47:07.098Z,0
2016-10-01T00:48:07.913Z,0
2016-10-01T00:49:06.797Z,0
2016-10-01T00:50:06.731Z,0
2016-10-01T00:51:07.367Z,0
2016-10-01T00:52:07.311Z,0
2016-10-01T00:53:07.629Z,0
2016-10-01T00:54:06.772Z,0
2016-10-01T00:55:06.986Z,0
2016-10-01T00:56:09.144Z,0
2016-10-01T00:57:07.158Z,0
2016-10-01T00:58:07.339Z,0
2016-10-01T00:59:06.828Z,0
2016-10-01T01:00:07.284Z,0
2016-10-01T01:01:06.872Z,0
2016-10-01T01:02:07.615Z,0
2016-10-01T01:03:07.818Z,0
2016-10-01T01:04:07.029Z,0
2016-10-01T01:05:06.812Z,0
2016-10-01T01:06:08.100Z,0
2016-10-01T01:07:08.371Z,0
2016-10-01T01:08:06.922Z,0
2016-10-01T01:09:07.739Z,0
2016-10-01T01:10:06.899Z,0
2016-10-01T01:11:06.680Z,0
2016-10-01T01:12:07.591Z,0
2016-10-01T01:13:07.742Z,0
2016-10-01T01:14:07.503Z,0
2016-10-01T01:15:07.392Z,0
2016-10-01T01:16:06.524Z,0
2016-10-01T01:17:07.207Z,0
2016-10-01T01:18:07.722Z,0
2016-10-01T01:19:07.485Z,0
2016-10-01T01:20:07.904Z,0
2016-10-01T01:21:07.496Z,0
2016-10-01T01:22:08.032Z,0
2016-10-01T01:23:07.996Z,0
2016-10-01T01:24:07.293Z,0
2016-10-01T01:25:09.061Z,0
2016-10-01T01:26:07.826Z,0
2016-10-01T01:27:07.365Z,0
2016-10-01T01:28:08.319Z,0
2016-10-01T01:29:07.132Z,0
2016-10-01T01:30:09.245Z,0
2016-10-01T01:31:07.957Z,0
2016-10-01T01:32:08.148Z,0
2016-10-01T01:33:07.365Z,0
2016-10-01T01:34:07.526Z,0
2016-10-01T01:35:07.907Z,0
2016-10-01T01:36:07.117Z,0
2016-10-01T01:37:07.518Z,0
2016-10-01T01:38:07.866Z,0
2016-10-01T01:39:07.201Z,0
2016-10-01T01:40:08.262Z,0
2016-10-01T01:41:08.502Z,0
2016-10-01T01:42:09.501Z,0
2016-10-01T01:43:08.877Z,0
2016-10-01T01:44:08.678Z,0
2016-10-01T01:45:08.785Z,0
2016-10-01T01:46:09.170Z,0
2016-10-01T01:47:08.367Z,0
2016-10-01T01:48:08.350Z,0
2016-10-01T01:49:08.354Z,0
2016-10-01T01:50:08.024Z,0
2016-10-01T01:51:08.395Z,0
2016-10-01T01:52:08.398Z,0
2016-10-01T01:53:08.841Z,0
2016-10-01T01:54:08.164Z,0
2016-10-01T01:55:08.272Z,0
2016-10-01T01:56:07.959Z,0
2016-10-01T01:57:08.084Z,0
2016-10-01T01:58:09.175Z,0
2016-10-01T01:59:08.156Z,0
2016-10-01T02:00:10.006Z,0
2016-10-01T02:01:09.141Z,0
2016-10-01T02:02:09.076Z,0
2016-10-01T02:03:07.792Z,0
2016-10-01T02:04:10.154Z,0
2016-10-01T02:05:09.152Z,0
2016-10-01T02:06:09.568Z,0
2016-10-01T02:07:08.531Z,0
2016-10-01T02:08:09.834Z,0
2016-10-01T02:09:08.380Z,0
2016-10-01T02:10:08.385Z,0
2016-10-01T02:11:08.327Z,0
2016-10-01T02:12:08.816Z,0
2016-10-01T02:13:09.901Z,0
2016-10-01T02:14:08.016Z,0
2016-10-01T02:15:09.986Z,0
2016-10-01T02:16:09.107Z,0
2016-10-01T02:17:09.216Z,0
2016-10-01T02:18:09.320Z,0
2016-10-01T02:19:08.861Z,0
2016-10-01T02:20:09.090Z,0
2016-10-01T02:21:08.312Z,0
2016-10-01T02:22:09.663Z,0
2016-10-01T02:23:08.134Z,0
2016-10-01T02:24:08.143Z,0
2016-10-01T02:25:09.330Z,0
2016-10-01T02:26:09.116Z,0
2016-10-01T02:27:08.401Z,0
2016-10-01T02:28:10.530Z,0
2016-10-01T02:29:08.958Z,0
2016-10-01T02:30:07.845Z,0
2016-10-01T02:31:10.096Z,0
2016-10-01T02:32:09.161Z,0
2016-10-01T02:33:10.504Z,0
2016-10-01T02:34:09.029Z,0
2016-10-01T02:35:08.390Z,0
2016-10-01T02:36:09.744Z,0
2016-10-01T02:37:08.252Z,0
2016-10-01T02:38:09.640Z,0
2016-10-01T02:39:09.598Z,0
2016-10-01T02:40:09.284Z,0
2016-10-01T02:41:10.023Z,0
2016-10-01T02:42:09.407Z,0
2016-10-01T02:43:09.335Z,0
2016-10-01T02:44:09.389Z,0
2016-10-01T02:45:12.234Z,0
2016-10-01T02:46:10.587Z,0
2016-10-01T02:47:10.789Z,0
2016-10-01T02:48:10.288Z,0
2016-10-01T02:49:08.990Z,0
2016-10-01T02:50:09.875Z,0
2016-10-01T02:51:10.711Z,0
2016-10-01T02:52:09.903Z,0
2016-10-01T02:53:13.362Z,0
2016-10-01T02:54:10.682Z,0
2016-10-01T02:55:09.244Z,0
2016-10-01T02:56:09.706Z,0
2016-10-01T02:57:09.632Z,0
2016-10-01T02:58:10.271Z,0
2016-10-01T02:59:10.412Z,0
2016-10-01T03:00:11.470Z,0
2016-10-01T03:01:09.265Z,0
2016-10-01T03:02:09.546Z,0
2016-10-01T03:03:10.288Z,0
2016-10-01T03:04:09.119Z,0
2016-10-01T03:05:09.660Z,0
2016-10-01T03:06:09.748Z,0
2016-10-01T03:07:10.311Z,0
2016-10-01T03:08:09.909Z,0
2016-10-01T03:09:10.630Z,0
2016-10-01T03:10:09.961Z,0
2016-10-01T03:11:10.958Z,0
2016-10-01T03:12:10.721Z,0
2016-10-01T03:13:10.272Z,0
2016-10-01T03:14:09.713Z,0
2016-10-01T03:15:09.456Z,0
2016-10-01T03:16:10.073Z,0
2016-10-01T03:17:09.532Z,0
2016-10-01T03:18:09.987Z,0
2016-10-01T03:19:10.852Z,0
2016-10-01T03:20:11.011Z,0
2016-10-01T03:21:09.603Z,0
2016-10-01T03:22:12.503Z,0
2016-10-01T03:23:10.397Z,0
2016-10-01T03:24:10.588Z,0
2016-10-01T03:25:10.212Z,0
2016-10-01T03:26:09.715Z,0
2016-10-01T03:27:11.329Z,0
2016-10-01T03:28:09.750Z,0
2016-10-01T03:29:09.786Z,0
2016-10-01T03:30:11.055Z,0
2016-10-01T03:31:11.166Z,0
2016-10-01T03:32:10.877Z,0
2016-10-01T03:33:10.825Z,0
2016-10-01T03:34:10.252Z,0
2016-10-01T03:35:10.260Z,0
2016-10-01T03:36:09.565Z,0
2016-10-01T03:37:12.655Z,0
2016-10-01T03:38:10.117Z,0
2016-10-01T03:39:10.928Z,0
2016-10-01T03:40:10.010Z,0
2016-10-01T03:41:10.378Z,0
2016-10-01T03:42:09.390Z,0
2016-10-01T03:43:10.785Z,0
2016-10-01T03:44:11.894Z,0
2016-10-01T03:45:10.324Z,0
2016-10-01T03:46:10.774Z,0
2016-10-01T03:47:12.443Z,0
2016-10-01T03:48:10.155Z,0
2016-10-01T03:49:11.276Z,0
2016-10-01T03:50:10.747Z,0
2016-10-01T03:51:10.115Z,0
2016-10-01T03:52:10.281Z,0
2016-10-01T03:53:11.604Z,0
2016-10-01T03:54:10.245Z,0
2016-10-01T03:55:10.956Z,0
2016-10-01T03:56:10.211Z,0
2016-10-01T03:57:10.229Z,0
2016-10-01T03:58:10.249Z,0
2016-10-01T03:59:10.067Z,0
2016-10-01T04:00:10.483Z,0
2016-10-01T04:01:10.958Z,0
2016-10-01T04:02:10.392Z,0
2016-10-01T04:03:10.578Z,0
2016-10-01T04:04:11.109Z,0
2016-10-01T04:05:11.727Z,0
2016-10-01T04:06:11.558Z,0
2016-10-01T04:07:10.944Z,0
2016-10-01T04:08:10.385Z,0
2016-10-01T04:09:12.101Z,0
2016-10-01T04:10:10.904Z,0
2016-10-01T04:11:11.654Z,0
2016-10-01T04:12:10.342Z,0
2016-10-01T04:13:10.677Z,0
2016-10-01T04:14:10.830Z,0
2016-10-01T04:15:11.929Z,0
2016-10-01T04:16:12.824Z,0
2016-10-01T04:17:11.398Z,0
2016-10-01T04:18:11.739Z,0
2016-10-01T04:19:12.602Z,0
2016-10-01T04:20:11.422Z,0
2016-10-01T04:21:11.018Z,0
2016-10-01T04:22:12.585Z,0
2016-10-01T04:23:13.279Z,0
2016-10-01T04:24:11.129Z,0
2016-10-01T04:25:10.357Z,0
2016-10-01T04:26:12.055Z,0
2016-10-01T04:27:12.316Z,0
2016-10-01T04:28:12.027Z,0
2016-10-01T04:29:11.745Z,0
2016-10-01T04:30:10.490Z,0
2016-10-01T04:31:11.794Z,0
2016-10-01T04:32:11.876Z,0
2016-10-01T04:33:11.557Z,0
2016-10-01T04:34:10.824Z,0
2016-10-01T04:35:11.534Z,0
2016-10-01T04:36:11.712Z,0
2016-10-01T04:37:11.424Z,0
2016-10-01T04:38:10.645Z,0
2016-10-01T04:39:11.388Z,0
2016-10-01T04:40:11.515Z,0
2016-10-01T04:41:11.618Z,0
2016-10-01T04:42:09.233Z,0
2016-10-01T04:43:12.009Z,0
2016-10-01T04:44:10.519Z,0
2016-10-01T04:45:12.372Z,0
2016-10-01T04:46:11.881Z,0
2016-10-01T04:47:12.147Z,0
2016-10-01T04:48:11.449Z,0
2016-10-01T04:49:12.243Z,0
2016-10-01T04:50:12.753Z,0
2016-10-01T04:51:12.024Z,0
2016-10-01T04:52:13.337Z,0
2016-10-01T04:53:12.881Z,0
2016-10-01T04:54:12.455Z,0
2016-10-01T04:55:12.646Z,0
2016-10-01T04:56:11.893Z,0
2016-10-01T04:57:13.177Z,0
2016-10-01T04:58:12.391Z,0
2016-10-01T04:59:11.940Z,0
2016-10-01T05:00:11.469Z,0
2016-10-01T05:01:11.971Z,0
2016-10-01T05:02:12.567Z,0
2016-10-01T05:03:12.992Z,0
2016-10-01T05:04:12.960Z,0
2016-10-01T05:05:11.654Z,0
2016-10-01T05:06:10.990Z,0
2016-10-01T05:07:11.848Z,0
2016-10-01T05:08:13.131Z,0
2016-10-01T05:09:12.651Z,0
2016-10-01T05:10:12.425Z,0
2016-10-01T05:11:11.626Z,0
2016-10-01T05:12:11.548Z,0
2016-10-01T05:13:12.314Z,0
2016-10-01T05:14:12.075Z,0
2016-10-01T05:15:12.904Z,0
2016-10-01T05:16:12.030Z,0
2016-10-01T05:17:12.193Z,0
2016-10-01T05:18:12.812Z,0
2016-10-01T05:19:13.568Z,0
2016-10-01T05:20:12.868Z,0
2016-10-01T05:21:12.307Z,0
2016-10-01T05:22:11.969Z,0
2016-10-01T05:23:13.012Z,0
2016-10-01T05:24:12.956Z,0
2016-10-01T05:25:12.475Z,0
2016-10-01T05:26:11.803Z,0
2016-10-01T05:27:12.107Z,0
2016-10-01T05:28:11.961Z,0
2016-10-01T05:29:14.680Z,5
2016-10-01T05:30:12.816Z,5
2016-10-01T05:31:12.248Z,5
2016-10-01T05:32:12.181Z,5
2016-10-01T05:33:12.641Z,5
2016-10-01T05:34:11.816Z,5
2016-10-01T05:35:12.394Z,5
2016-10-01T05:36:12.138Z,5
2016-10-01T05:37:13.156Z,5
2016-10-01T05:38:13.391Z,10
2016-10-01T05:39:13.073Z,10
2016-10-01T05:40:12.816Z,10
2016-10-01T05:41:12.137Z,15
2016-10-01T05:42:14.092Z,15
2016-10-01T05:43:13.483Z,15
2016-10-01T05:44:13.670Z,15
2016-10-01T05:45:16.791Z,15
2016-10-01T05:46:12.832Z,15
2016-10-01T05:47:13.268Z,15
2016-10-01T05:48:11.718Z,15
2016-10-01T05:49:13.215Z,15
2016-10-01T05:50:13.857Z,15
2016-10-01T05:51:13.589Z,15
2016-10-01T05:52:13.366Z,15
2016-10-01T05:53:13.196Z,15
2016-10-01T05:54:12.944Z,20
2016-10-01T05:55:13.557Z,20
2016-10-01T05:56:12.796Z,20
2016-10-01T05:57:15.138Z,25
2016-10-01T05:58:11.947Z,25
2016-10-01T05:59:14.037Z,30
2016-10-01T06:00:13.355Z,30
2016-10-01T06:01:12.928Z,30
2016-10-01T06:02:12.921Z,35
2016-10-01T06:03:14.460Z,35
2016-10-01T06:04:13.525Z,35
2016-10-01T06:05:13.365Z,35
2016-10-01T06:06:14.588Z,35
2016-10-01T06:07:15.253Z,35
2016-10-01T06:08:13.768Z,35
2016-10-01T06:09:14.590Z,35
2016-10-01T06:10:13.385Z,35
2016-10-01T06:11:13.302Z,35
2016-10-01T06:12:13.324Z,35
2016-10-01T06:13:16.481Z,35
2016-10-01T06:14:13.080Z,35
2016-10-01T06:15:14.541Z,35
2016-10-01T06:16:13.893Z,35
2016-10-01T06:17:13.286Z,40
2016-10-01T06:18:14.774Z,40
2016-10-01T06:19:13.611Z,40
2016-10-01T06:20:14.005Z,40
2016-10-01T06:21:14.305Z,40
2016-10-01T06:22:14.475Z,45
2016-10-01T06:23:13.815Z,45
2016-10-01T06:24:13.625Z,45
2016-10-01T06:25:14.534Z,45
2016-10-01T06:26:13.322Z,50
2016-10-01T06:27:14.341Z,50
2016-10-01T06:28:13.023Z,50
2016-10-01T06:29:14.355Z,55
2016-10-01T06:30:14.236Z,55
2016-10-01T06:31:14.351Z,55
2016-10-01T06:32:14.216Z,60
2016-10-01T06:33:13.405Z,65
2016-10-01T06:34:14.720Z,65
2016-10-01T06:35:13.359Z,65
2016-10-01T06:36:15.307Z,70
2016-10-01T06:37:14.230Z,70
2016-10-01T06:38:13.790Z,70
2016-10-01T06:39:13.472Z,75
2016-10-01T06:40:13.564Z,75
2016-10-01T06:41:14.564Z,80
2016-10-01T06:42:15.451Z,80
2016-10-01T06:43:13.491Z,85
2016-10-01T06:44:13.734Z,80
2016-10-01T06:45:14.824Z,80
2016-10-01T06:46:13.685Z,75
2016-10-01T06:47:18.232Z,70
2016-10-01T06:48:14.444Z,65
2016-10-01T06:50:12.024Z,60
2016-10-01T06:51:11.702Z,60
2016-10-01T06:52:12.104Z,60
2016-10-01T06:53:11.788Z,65
2016-10-01T06:54:12.071Z,65
2016-10-01T06:55:14.166Z,70
2016-10-01T06:56:14.290Z,75
2016-10-01T06:57:13.773Z,80
2016-10-01T06:58:14.206Z,75
2016-10-01T06:59:13.659Z,75
2016-10-01T07:00:14.146Z,75
2016-10-01T07:01:14.307Z,75
2016-10-01T07:02:14.997Z,75
2016-10-01T07:03:14.625Z,75
2016-10-01T07:04:14.216Z,80
2016-10-01T07:05:14.476Z,90
2016-10-01T07:06:14.007Z,100
2016-10-01T07:07:14.307Z,110
2016-10-01T07:08:15.008Z,115
2016-10-01T07:09:13.938Z,120
2016-10-01T07:10:13.993Z,135
2016-10-01T07:11:15.107Z,135
2016-10-01T07:12:15.154Z,135
2016-10-01T07:13:14.873Z,130
2016-10-01T07:14:14.157Z,130
2016-10-01T07:15:13.884Z,125
2016-10-01T07:16:15.207Z,130
2016-10-01T07:17:15.138Z,130
2016-10-01T07:18:14.171Z,125
2016-10-01T07:19:15.460Z,120
2016-10-01T07:20:14.294Z,110
2016-10-01T07:21:15.402Z,110
2016-10-01T07:22:16.421Z,115
2016-10-01T07:23:13.294Z,120
2016-10-01T07:24:16.185Z,120
2016-10-01T07:25:15.265Z,120
2016-10-01T07:26:16.007Z,120
2016-10-01T07:27:14.509Z,115
2016-10-01T07:28:15.712Z,115
2016-10-01T07:29:15.713Z,110
2016-10-01T07:30:13.245Z,110
2016-10-01T07:31:14.272Z,110
2016-10-01T07:32:15.349Z,110
2016-10-01T07:33:16.069Z,110
2016-10-01T07:34:15.868Z,110
2016-10-01T07:35:14.651Z,110
2016-10-01T07:36:15.294Z,115
2016-10-01T07:37:14.919Z,120
2016-10-01T07:38:16.046Z,125
2016-10-01T07:39:15.302Z,125
2016-10-01T07:40:15.881Z,125
2016-10-01T07:41:15.184Z,135
2016-10-01T07:42:14.615Z,140
2016-10-01T07:43:16.887Z,145
2016-10-01T07:44:12.706Z,150
2016-10-01T07:45:15.519Z,160
2016-10-01T07:46:15.220Z,170
2016-10-01T07:47:16.024Z,180
2016-10-01T07:48:15.389Z,180
2016-10-01T07:49:15.966Z,175
2016-10-01T07:50:14.302Z,175
2016-10-01T07:51:15.107Z,180
2016-10-01T07:52:14.533Z,180
2016-10-01T07:53:15.367Z,175
2016-10-01T07:54:15.320Z,175
2016-10-01T07:55:15.508Z,180
2016-10-01T07:56:14.852Z,185
2016-10-01T07:57:15.870Z,195
2016-10-01T07:58:16.606Z,210
2016-10-01T07:59:15.717Z,210
2016-10-01T08:00:15.554Z,220
2016-10-01T08:01:15.473Z,230
2016-10-01T08:02:15.405Z,235
2016-10-01T08:03:15.574Z,240
2016-10-01T08:04:15.412Z,235
2016-10-01T08:05:16.234Z,230
2016-10-01T08:06:15.633Z,230
2016-10-01T08:07:16.052Z,230
2016-10-01T08:08:15.755Z,240
2016-10-01T08:09:15.402Z,245
2016-10-01T08:10:15.943Z,250
2016-10-01T08:11:16.280Z,275
2016-10-01T08:12:15.944Z,305
2016-10-01T08:13:15.713Z,310
2016-10-01T08:14:15.696Z,280
2016-10-01T08:15:17.212Z,255
2016-10-01T08:16:15.069Z,265
2016-10-01T08:17:16.589Z,260
2016-10-01T08:18:17.030Z,240
2016-10-01T08:19:15.581Z,210
2016-10-01T08:20:16.355Z,195
2016-10-01T08:21:15.600Z,195
2016-10-01T08:22:16.065Z,200
2016-10-01T08:23:17.408Z,205
2016-10-01T08:24:16.527Z,210
2016-10-01T08:25:16.328Z,210
2016-10-01T08:26:16.907Z,215
2016-10-01T08:27:14.817Z,220
2016-10-01T08:28:16.186Z,225
2016-10-01T08:29:16.136Z,220
2016-10-01T08:30:15.703Z,215
2016-10-01T08:31:15.698Z,210
2016-10-01T08:32:15.931Z,205
2016-10-01T08:33:16.234Z,200
2016-10-01T08:34:14.802Z,200
2016-10-01T08:35:15.609Z,205
2016-10-01T08:36:18.093Z,205
2016-10-01T08:37:15.184Z,200
2016-10-01T08:38:16.103Z,190
2016-10-01T08:39:16.601Z,185
2016-10-01T08:40:16.393Z,185
2016-10-01T08:41:16.067Z,185
2016-10-01T08:42:21.350Z,195
2016-10-01T08:43:22.939Z,195
2016-10-01T08:44:22.163Z,195
2016-10-01T08:45:19.551Z,200
2016-10-01T08:46:17.946Z,205
2016-10-01T08:47:19.314Z,210
2016-10-01T08:48:18.115Z,215
2016-10-01T08:49:18.503Z,210
2016-10-01T08:50:18.613Z,210
2016-10-01T08:51:18.056Z,200
2016-10-01T08:52:18.501Z,200
2016-10-01T08:53:19.224Z,205
2016-10-01T08:54:18.976Z,210
2016-10-01T08:55:19.666Z,215
2016-10-01T08:56:18.363Z,215
2016-10-01T08:57:18.215Z,215
2016-10-01T08:58:19.497Z,210
2016-10-01T08:59:18.595Z,210
2016-10-01T09:00:19.395Z,215
2016-10-01T09:01:17.381Z,210
2016-10-01T09:02:20.943Z,205
2016-10-01T09:03:19.603Z,205
2016-10-01T09:04:19.378Z,210
2016-10-01T09:05:18.016Z,210
2016-10-01T09:06:18.187Z,205
2016-10-01T09:07:17.613Z,200
2016-10-01T09:08:18.261Z,190
2016-10-01T09:09:19.132Z,195
2016-10-01T09:10:19.261Z,205
2016-10-01T09:11:18.276Z,210
2016-10-01T09:12:18.728Z,200
2016-10-01T09:13:18.305Z,200
2016-10-01T09:14:19.371Z,205
2016-10-01T09:15:19.727Z,215
2016-10-01T09:16:19.582Z,215
2016-10-01T09:17:18.175Z,220
2016-10-01T09:18:18.612Z,215
2016-10-01T09:19:20.031Z,210
2016-10-01T09:20:17.925Z,205
2016-10-01T09:21:19.640Z,200
2016-10-01T09:22:18.693Z,200
2016-10-01T09:23:18.691Z,195
2016-10-01T09:24:22.512Z,190
2016-10-01T09:25:20.702Z,185
2016-10-01T09:26:19.073Z,185
2016-10-01T09:27:20.079Z,190
2016-10-01T09:28:18.629Z,200
2016-10-01T09:29:19.758Z,200
2016-10-01T09:30:18.236Z,200
2016-10-01T09:31:19.830Z,195
2016-10-01T09:32:18.312Z,195
2016-10-01T09:33:18.903Z,195
2016-10-01T09:34:20.571Z,200
2016-10-01T09:35:19.709Z,205
2016-10-01T09:36:19.023Z,210
2016-10-01T09:37:18.703Z,205
2016-10-01T09:38:17.543Z,205
2016-10-01T09:39:23.269Z,205
2016-10-01T09:40:20.816Z,210
2016-10-01T09:41:19.902Z,210
2016-10-01T09:42:19.030Z,200
2016-10-01T09:43:21.935Z,200
2016-10-01T09:44:18.269Z,190
2016-10-01T09:45:16.920Z,180
2016-10-01T09:46:18.137Z,180
2016-10-01T09:47:17.844Z,190
2016-10-01T09:48:16.933Z,195
2016-10-01T09:49:17.692Z,185
2016-10-01T09:50:17.822Z,185
2016-10-01T09:51:17.818Z,185
2016-10-01T09:52:17.297Z,195
2016-10-01T09:53:20.537Z,210
2016-10-01T09:54:17.736Z,210
2016-10-01T09:55:19.648Z,195
2016-10-01T09:56:17.849Z,185
2016-10-01T09:57:17.391Z,175
2016-10-01T09:58:17.907Z,170
2016-10-01T09:59:18.696Z,170
2016-10-01T10:00:17.413Z,175
2016-10-01T10:01:18.327Z,185
2016-10-01T10:02:17.964Z,190
2016-10-01T10:03:18.961Z,195
2016-10-01T10:04:17.814Z,195
2016-10-01T10:05:18.216Z,190
2016-10-01T10:06:17.615Z,180
2016-10-01T10:07:20.337Z,170
2016-10-01T10:08:18.178Z,170
2016-10-01T10:09:17.899Z,170
2016-10-01T10:10:19.736Z,165
2016-10-01T10:11:19.071Z,160
2016-10-01T10:12:17.346Z,150
2016-10-01T10:13:17.660Z,155
2016-10-01T10:14:18.140Z,155
2016-10-01T10:15:18.341Z,155
2016-10-01T10:16:18.795Z,165
2016-10-01T10:17:18.541Z,185
2016-10-01T10:18:18.453Z,205
2016-10-01T10:19:18.167Z,220
2016-10-01T10:20:18.096Z,230
2016-10-01T10:21:18.001Z,220
2016-10-01T10:22:18.441Z,210
2016-10-01T10:23:18.149Z,200
2016-10-01T10:24:17.817Z,190
2016-10-01T10:25:19.646Z,195
2016-10-01T10:26:19.148Z,205
2016-10-01T10:27:18.225Z,235
2016-10-01T10:28:18.457Z,270
2016-10-01T10:29:19.983Z,285
2016-10-01T10:30:19.561Z,280
2016-10-01T10:31:18.413Z,265
2016-10-01T10:32:20.020Z,265
2016-10-01T10:33:19.122Z,280
2016-10-01T10:34:19.425Z,295
2016-10-01T10:35:18.095Z,310
2016-10-01T10:36:18.403Z,320
2016-10-01T10:37:18.355Z,335
2016-10-01T10:38:19.412Z,325
2016-10-01T10:39:19.506Z,315
2016-10-01T10:40:21.622Z,325
2016-10-01T10:41:19.364Z,350
2016-10-01T10:42:19.630Z,375
2016-10-01T10:43:18.341Z,390
2016-10-01T10:44:19.932Z,400
2016-10-01T10:45:18.544Z,385
2016-10-01T10:46:18.279Z,380
2016-10-01T10:47:19.071Z,390
2016-10-01T10:48:18.761Z,405
2016-10-01T10:49:18.898Z,425
2016-10-01T10:50:18.429Z,440
2016-10-01T10:51:21.788Z,470
2016-10-01T10:52:20.660Z,495
2016-10-01T10:53:18.764Z,500
2016-10-01T10:54:19.562Z,490
2016-10-01T10:55:19.536Z,500
2016-10-01T10:56:19.710Z,510
2016-10-01T10:57:18.084Z,495
2016-10-01T10:58:18.181Z,465
2016-10-01T10:59:18.901Z,445
2016-10-01T11:00:18.937Z,435
2016-10-01T11:01:18.404Z,440
2016-10-01T11:02:20.643Z,455
2016-10-01T11:03:18.686Z,465
2016-10-01T11:04:19.404Z,480
2016-10-01T11:05:18.600Z,505
2016-10-01T11:06:18.996Z,545
2016-10-01T11:07:19.480Z,620
2016-10-01T11:08:19.741Z,650
2016-10-01T11:09:19.030Z,655
2016-10-01T11:10:18.727Z,660
2016-10-01T11:11:18.818Z,665
2016-10-01T11:12:18.679Z,655
2016-10-01T11:13:18.826Z,640
2016-10-01T11:14:18.508Z,635
2016-10-01T11:15:19.142Z,640
2016-10-01T11:16:19.536Z,635
2016-10-01T11:17:20.649Z,640
2016-10-01T11:18:21.039Z,615
2016-10-01T11:19:19.062Z,595
2016-10-01T11:20:18.934Z,640
2016-10-01T11:21:20.555Z,650
2016-10-01T11:22:18.985Z,550
2016-10-01T11:23:20.050Z,505
2016-10-01T11:24:19.894Z,475
2016-10-01T11:25:20.001Z,430
2016-10-01T11:26:20.278Z,405
2016-10-01T11:27:19.667Z,415
2016-10-01T11:28:19.479Z,440
2016-10-01T11:29:19.473Z,455
2016-10-01T11:30:18.865Z,450
2016-10-01T11:31:19.938Z,430
2016-10-01T11:32:19.922Z,400
2016-10-01T11:33:19.805Z,360
2016-10-01T11:34:21.607Z,325
2016-10-01T11:35:19.041Z,305
2016-10-01T11:36:18.604Z,315
2016-10-01T11:37:20.517Z,360
2016-10-01T11:38:20.405Z,390
2016-10-01T11:39:20.494Z,390
2016-10-01T11:40:18.891Z,375
2016-10-01T11:41:20.551Z,355
2016-10-01T11:42:20.043Z,365
2016-10-01T11:43:20.249Z,400
2016-10-01T11:44:18.476Z,420
2016-10-01T11:45:20.429Z,425
2016-10-01T11:46:20.618Z,405
2016-10-01T11:47:21.003Z,345
2016-10-01T11:48:20.427Z,275
2016-10-01T11:49:20.466Z,235
2016-10-01T11:50:20.946Z,240
2016-10-01T11:51:20.415Z,280
2016-10-01T11:52:20.247Z,335
2016-10-01T11:53:22.334Z,355
2016-10-01T11:54:21.075Z,350
2016-10-01T11:55:21.039Z,365
2016-10-01T11:56:20.715Z,410
2016-10-01T11:57:21.137Z,445
2016-10-01T11:58:21.698Z,475
2016-10-01T11:59:20.229Z,510
2016-10-01T12:00:20.394Z,520
2016-10-01T12:01:20.527Z,515
2016-10-01T12:02:20.736Z,535
2016-10-01T12:03:21.206Z,575
2016-10-01T12:04:20.036Z,605
2016-10-01T12:05:20.487Z,565
2016-10-01T12:06:21.073Z,495
2016-10-01T12:07:19.925Z,445
2016-10-01T12:08:20.108Z,425
2016-10-01T12:09:20.755Z,435
2016-10-01T12:10:20.184Z,450
2016-10-01T12:11:20.975Z,460
2016-10-01T12:12:20.703Z,500
2016-10-01T12:13:20.413Z,545
2016-10-01T12:14:20.705Z,565
2016-10-01T12:15:20.745Z,600
2016-10-01T12:16:21.500Z,610
2016-10-01T12:17:19.958Z,610
2016-10-01T12:18:21.755Z,590
2016-10-01T12:19:20.871Z,595
2016-10-01T12:20:20.638Z,590
2016-10-01T12:21:20.442Z,575
2016-10-01T12:22:20.847Z,540
2016-10-01T12:23:20.093Z,510
2016-10-01T12:24:20.960Z,500
2016-10-01T12:25:20.461Z,495
2016-10-01T12:26:20.697Z,485
2016-10-01T12:27:21.115Z,485
2016-10-01T12:28:21.400Z,500
2016-10-01T12:29:21.214Z,525
2016-10-01T12:30:21.223Z,545
2016-10-01T12:31:20.786Z,545
2016-10-01T12:32:21.181Z,520
2016-10-01T12:33:21.321Z,500
2016-10-01T12:34:21.038Z,505
2016-10-01T12:35:21.573Z,520
2016-10-01T12:36:21.946Z,535
2016-10-01T12:37:21.535Z,555
2016-10-01T12:38:21.433Z,565
2016-10-01T12:39:21.872Z,570
2016-10-01T12:40:21.013Z,545
2016-10-01T12:41:21.794Z,520
2016-10-01T12:42:21.533Z,540
2016-10-01T12:43:21.823Z,570
2016-10-01T12:44:22.475Z,585
2016-10-01T12:45:21.946Z,605
2016-10-01T12:46:21.936Z,620
2016-10-01T12:47:21.822Z,625
2016-10-01T12:48:21.878Z,615
2016-10-01T12:49:22.917Z,605
2016-10-01T12:50:22.373Z,600
2016-10-01T12:51:21.571Z,595
2016-10-01T12:52:21.752Z,565
2016-10-01T12:53:23.678Z,530
2016-10-01T12:54:21.842Z,530
2016-10-01T12:55:23.675Z,560
2016-10-01T12:56:21.876Z,575
2016-10-01T12:57:22.103Z,585
2016-10-01T12:58:22.578Z,585
2016-10-01T12:59:21.865Z,600
2016-10-01T13:00:21.969Z,610
2016-10-01T13:01:22.637Z,615
2016-10-01T13:02:22.447Z,630
2016-10-01T13:03:21.253Z,645
2016-10-01T13:04:20.336Z,610
2016-10-01T13:05:21.633Z,560
2016-10-01T13:06:21.552Z,510
2016-10-01T13:07:20.638Z,490
2016-10-01T13:08:20.518Z,495
2016-10-01T13:09:19.898Z,510
2016-10-01T13:10:19.630Z,505
2016-10-01T13:11:19.309Z,510
2016-10-01T13:12:21.707Z,525
2016-10-01T13:13:22.086Z,520
2016-10-01T13:14:23.892Z,520
2016-10-01T13:15:21.908Z,540
2016-10-01T13:16:22.617Z,565
2016-10-01T13:17:20.861Z,580
2016-10-01T13:18:22.141Z,600
2016-10-01T13:19:23.678Z,615
2016-10-01T13:20:21.383Z,635
2016-10-01T13:21:21.395Z,665
2016-10-01T13:22:23.463Z,705
2016-10-01T13:23:21.560Z,730
2016-10-01T13:24:22.552Z,710
2016-10-01T13:25:23.417Z,675
2016-10-01T13:26:22.943Z,680
2016-10-01T13:27:21.269Z,675
2016-10-01T13:28:21.900Z,710
2016-10-01T13:29:22.877Z,810
2016-10-01T13:30:23.317Z,870
2016-10-01T13:31:21.772Z,885
2016-10-01T13:32:23.101Z,910
2016-10-01T13:33:21.939Z,865
2016-10-01T13:34:23.224Z,840
2016-10-01T13:35:21.387Z,830
2016-10-01T13:36:22.388Z,765
2016-10-01T13:37:22.888Z,695
2016-10-01T13:38:23.295Z,645
2016-10-01T13:39:22.979Z,635
2016-10-01T13:40:22.944Z,630
2016-10-01T13:41:22.619Z,600
2016-10-01T13:42:23.826Z,520
2016-10-01T13:43:24.023Z,445
2016-10-01T13:44:22.958Z,385
2016-10-01T13:45:23.096Z,355
2016-10-01T13:46:24.037Z,355
2016-10-01T13:47:23.956Z,370
2016-10-01T13:48:22.935Z,375
2016-10-01T13:49:22.816Z,385
2016-10-01T13:50:23.104Z,410
2016-10-01T13:51:22.772Z,415
2016-10-01T13:52:22.872Z,410
2016-10-01T13:53:22.337Z,405
2016-10-01T13:54:23.300Z,410
2016-10-01T13:55:24.242Z,435
2016-10-01T13:56:22.860Z,455
2016-10-01T13:57:22.865Z,475
2016-10-01T13:58:22.462Z,485
2016-10-01T13:59:22.500Z,470
2016-10-01T14:00:22.800Z,450
2016-10-01T14:01:23.328Z,430
2016-10-01T14:02:23.115Z,420
2016-10-01T14:03:22.225Z,390
2016-10-01T14:04:23.362Z,400
2016-10-01T14:05:23.101Z,435
2016-10-01T14:06:22.596Z,430
2016-10-01T14:07:22.585Z,410
2016-10-01T14:08:22.954Z,415
2016-10-01T14:09:23.242Z,405
2016-10-01T14:10:22.964Z,380
2016-10-01T14:11:23.808Z,365
2016-10-01T14:12:23.908Z,365
2016-10-01T14:13:23.085Z,355